sensor_id;sensor_type;location;lat;lon;timestamp;temperature;humidity
42019;DHT22;27703;51.980;5.848;2022-12-10T00:00:39;0.20;99.90
42019;DHT22;27703;51.980;5.848;2022-12-10T00:03:04;0.20;99.90
42019;DHT22;27703;51.980;5.848;2022-12-10T00:05:33;0.20;99.90
42019;DHT22;27703;51.980;5.848;2022-12-10T00:07:58;0.20;99.90
42019;DHT22;27703;51.980;5.848;2022-12-10T00:10:24;0.10;99.90
42019;DHT22;27703;51.980;5.848;2022-12-10T00:12:49;0.10;99.90
42019;DHT22;27703;51.980;5.848;2022-12-10T00:15:15;0.10;99.90
42019;DHT22;27703;51.980;5.848;2022-12-10T00:17:41;0.10;99.90
42019;DHT22;27703;51.980;5.848;2022-12-10T00:20:08;0.00;99.90
42019;DHT22;27703;51.980;5.848;2022-12-10T00:22:34;0.00;99.90
42019;DHT22;27703;51.980;5.848;2022-12-10T00:24:59;0.00;99.90
42019;DHT22;27703;51.980;5.848;2022-12-10T00:27:25;-0.10;99.90
42019;DHT22;27703;51.980;5.848;2022-12-10T00:29:50;-0.10;99.90
42019;DHT22;27703;51.980;5.848;2022-12-10T00:32:16;-0.10;99.90
42019;DHT22;27703;51.980;5.848;2022-12-10T00:34:41;-0.10;99.90
42019;DHT22;27703;51.980;5.848;2022-12-10T00:37:07;-0.10;99.90
42019;DHT22;27703;51.980;5.848;2022-12-10T00:39:32;-0.10;99.90
42019;DHT22;27703;51.980;5.848;2022-12-10T00:41:58;-0.10;99.90
42019;DHT22;27703;51.980;5.848;2022-12-10T00:44:24;-0.20;99.90
42019;DHT22;27703;51.980;5.848;2022-12-10T00:46:49;-0.20;99.90
42019;DHT22;27703;51.980;5.848;2022-12-10T00:49:15;-0.20;99.90
42019;DHT22;27703;51.980;5.848;2022-12-10T00:51:41;-0.20;99.90
42019;DHT22;27703;51.980;5.848;2022-12-10T00:54:07;-0.30;99.90
42019;DHT22;27703;51.980;5.848;2022-12-10T00:56:33;-0.30;99.90
42019;DHT22;27703;51.980;5.848;2022-12-10T00:59:00;-0.30;99.90
42019;DHT22;27703;51.980;5.848;2022-12-10T01:01:29;-0.30;99.90
42019;DHT22;27703;51.980;5.848;2022-12-10T01:03:58;-0.20;99.90
42019;DHT22;27703;51.980;5.848;2022-12-10T01:06:28;-0.20;99.90
42019;DHT22;27703;51.980;5.848;2022-12-10T01:08:56;-0.30;99.90
42019;DHT22;27703;51.980;5.848;2022-12-10T01:11:25;-0.30;99.90
42019;DHT22;27703;51.980;5.848;2022-12-10T01:13:52;-0.30;99.90
42019;DHT22;27703;51.980;5.848;2022-12-10T01:16:19;-0.30;99.90
42019;DHT22;27703;51.980;5.848;2022-12-10T01:18:46;-0.30;99.90
42019;DHT22;27703;51.980;5.848;2022-12-10T01:21:15;-0.40;99.90
42019;DHT22;27703;51.980;5.848;2022-12-10T01:23:44;-0.30;99.90
42019;DHT22;27703;51.980;5.848;2022-12-10T01:26:16;-0.30;99.90
42019;DHT22;27703;51.980;5.848;2022-12-10T01:28:42;-0.30;99.90
42019;DHT22;27703;51.980;5.848;2022-12-10T01:31:17;-0.30;99.90
42019;DHT22;27703;51.980;5.848;2022-12-10T01:33:43;-0.30;99.90
42019;DHT22;27703;51.980;5.848;2022-12-10T01:36:14;-0.30;99.90
42019;DHT22;27703;51.980;5.848;2022-12-10T01:38:41;-0.20;99.90
42019;DHT22;27703;51.980;5.848;2022-12-10T01:41:10;-0.20;99.90
42019;DHT22;27703;51.980;5.848;2022-12-10T01:46:38;-0.20;99.90
42019;DHT22;27703;51.980;5.848;2022-12-10T01:49:10;-0.20;99.90
42019;DHT22;27703;51.980;5.848;2022-12-10T01:51:37;-0.20;99.90
42019;DHT22;27703;51.980;5.848;2022-12-10T01:54:08;-0.20;99.90
42019;DHT22;27703;51.980;5.848;2022-12-10T01:56:40;-0.10;99.90
42019;DHT22;27703;51.980;5.848;2022-12-10T01:59:07;-0.10;99.90
42019;DHT22;27703;51.980;5.848;2022-12-10T02:01:55;-0.20;99.90
42019;DHT22;27703;51.980;5.848;2022-12-10T02:04:50;-0.20;99.90
42019;DHT22;27703;51.980;5.848;2022-12-10T02:10:55;-0.30;99.90
42019;DHT22;27703;51.980;5.848;2022-12-10T02:14:03;-0.30;99.90
42019;DHT22;27703;51.980;5.848;2022-12-10T02:16:41;-0.30;99.90
42019;DHT22;27703;51.980;5.848;2022-12-10T02:19:26;-0.30;99.90
42019;DHT22;27703;51.980;5.848;2022-12-10T02:21:55;-0.30;99.90
42019;DHT22;27703;51.980;5.848;2022-12-10T02:24:30;-0.30;99.90
42019;DHT22;27703;51.980;5.848;2022-12-10T02:29:38;-0.30;99.90
42019;DHT22;27703;51.980;5.848;2022-12-10T02:32:11;-0.40;99.90
42019;DHT22;27703;51.980;5.848;2022-12-10T02:34:43;-0.40;99.90
42019;DHT22;27703;51.980;5.848;2022-12-10T02:37:17;-0.40;99.90
42019;DHT22;27703;51.980;5.848;2022-12-10T02:39:48;-0.40;99.90
42019;DHT22;27703;51.980;5.848;2022-12-10T02:42:15;-0.40;99.90
42019;DHT22;27703;51.980;5.848;2022-12-10T02:44:43;-0.40;99.90
42019;DHT22;27703;51.980;5.848;2022-12-10T02:47:10;-0.40;99.90
42019;DHT22;27703;51.980;5.848;2022-12-10T02:49:37;-0.50;99.90
42019;DHT22;27703;51.980;5.848;2022-12-10T02:52:09;-0.50;99.90
42019;DHT22;27703;51.980;5.848;2022-12-10T02:54:46;-0.50;99.90
42019;DHT22;27703;51.980;5.848;2022-12-10T03:05:06;-0.60;99.90
42019;DHT22;27703;51.980;5.848;2022-12-10T03:07:41;-0.70;99.90
42019;DHT22;27703;51.980;5.848;2022-12-10T03:10:21;-0.70;99.90
42019;DHT22;27703;51.980;5.848;2022-12-10T03:12:54;-0.70;99.90
42019;DHT22;27703;51.980;5.848;2022-12-10T03:15:21;-0.80;99.90
42019;DHT22;27703;51.980;5.848;2022-12-10T03:17:48;-0.80;99.90
42019;DHT22;27703;51.980;5.848;2022-12-10T03:20:15;-0.80;99.90
42019;DHT22;27703;51.980;5.848;2022-12-10T03:22:45;-0.80;99.90
42019;DHT22;27703;51.980;5.848;2022-12-10T03:25:15;-0.80;99.90
42019;DHT22;27703;51.980;5.848;2022-12-10T03:27:43;-0.80;99.90
42019;DHT22;27703;51.980;5.848;2022-12-10T03:30:11;-0.90;99.90
42019;DHT22;27703;51.980;5.848;2022-12-10T03:32:36;-0.90;99.90
42019;DHT22;27703;51.980;5.848;2022-12-10T03:35:04;-0.90;99.90
42019;DHT22;27703;51.980;5.848;2022-12-10T03:37:30;-0.90;99.90
42019;DHT22;27703;51.980;5.848;2022-12-10T03:39:57;-0.80;99.90
42019;DHT22;27703;51.980;5.848;2022-12-10T03:42:23;-0.80;99.90
42019;DHT22;27703;51.980;5.848;2022-12-10T03:44:52;-0.80;99.90
42019;DHT22;27703;51.980;5.848;2022-12-10T03:47:18;-0.80;99.90
42019;DHT22;27703;51.980;5.848;2022-12-10T03:49:44;-0.70;99.90
42019;DHT22;27703;51.980;5.848;2022-12-10T03:52:10;-0.70;99.90
42019;DHT22;27703;51.980;5.848;2022-12-10T03:54:36;-0.70;99.90
42019;DHT22;27703;51.980;5.848;2022-12-10T03:57:02;-0.80;99.90
42019;DHT22;27703;51.980;5.848;2022-12-10T03:59:28;-0.80;99.90
42019;DHT22;27703;51.980;5.848;2022-12-10T04:01:53;-0.80;99.90
42019;DHT22;27703;51.980;5.848;2022-12-10T04:04:19;-0.70;99.90
42019;DHT22;27703;51.980;5.848;2022-12-10T04:06:45;-0.70;99.90
42019;DHT22;27703;51.980;5.848;2022-12-10T04:09:13;-0.70;99.90
42019;DHT22;27703;51.980;5.848;2022-12-10T04:11:39;-0.70;99.90
42019;DHT22;27703;51.980;5.848;2022-12-10T04:14:04;-0.60;99.90
42019;DHT22;27703;51.980;5.848;2022-12-10T04:16:48;-0.60;99.90
42019;DHT22;27703;51.980;5.848;2022-12-10T04:19:16;-0.70;99.90
42019;DHT22;27703;51.980;5.848;2022-12-10T04:21:43;-0.60;99.90
42019;DHT22;27703;51.980;5.848;2022-12-10T04:24:30;-0.60;99.90
42019;DHT22;27703;51.980;5.848;2022-12-10T04:27:24;-0.70;99.90
42019;DHT22;27703;51.980;5.848;2022-12-10T04:29:51;-0.70;99.90
42019;DHT22;27703;51.980;5.848;2022-12-10T04:32:18;-0.70;99.90
42019;DHT22;27703;51.980;5.848;2022-12-10T04:34:44;-0.70;99.90
42019;DHT22;27703;51.980;5.848;2022-12-10T04:37:10;-0.80;99.90
42019;DHT22;27703;51.980;5.848;2022-12-10T04:39:36;-0.80;99.90
42019;DHT22;27703;51.980;5.848;2022-12-10T04:42:02;-0.80;99.90
42019;DHT22;27703;51.980;5.848;2022-12-10T04:44:28;-0.80;99.90
42019;DHT22;27703;51.980;5.848;2022-12-10T04:46:53;-0.80;99.90
42019;DHT22;27703;51.980;5.848;2022-12-10T04:49:19;-0.80;99.90
42019;DHT22;27703;51.980;5.848;2022-12-10T04:51:45;-0.80;99.90
42019;DHT22;27703;51.980;5.848;2022-12-10T04:54:11;-0.80;99.90
42019;DHT22;27703;51.980;5.848;2022-12-10T04:56:37;-0.80;99.90
42019;DHT22;27703;51.980;5.848;2022-12-10T04:59:03;-0.90;99.90
42019;DHT22;27703;51.980;5.848;2022-12-10T05:01:30;-0.90;99.90
42019;DHT22;27703;51.980;5.848;2022-12-10T05:03:59;-0.90;99.90
42019;DHT22;27703;51.980;5.848;2022-12-10T05:06:25;-0.80;99.90
42019;DHT22;27703;51.980;5.848;2022-12-10T05:08:50;-0.80;99.90
42019;DHT22;27703;51.980;5.848;2022-12-10T05:11:18;-0.80;99.90
42019;DHT22;27703;51.980;5.848;2022-12-10T05:13:47;-0.80;99.90
42019;DHT22;27703;51.980;5.848;2022-12-10T05:16:16;-0.90;99.90
42019;DHT22;27703;51.980;5.848;2022-12-10T05:18:42;-0.90;99.90
42019;DHT22;27703;51.980;5.848;2022-12-10T05:21:12;-1.00;99.90
42019;DHT22;27703;51.980;5.848;2022-12-10T05:23:39;-1.00;99.90
42019;DHT22;27703;51.980;5.848;2022-12-10T05:26:07;-0.90;99.90
42019;DHT22;27703;51.980;5.848;2022-12-10T05:28:42;-0.90;99.90
42019;DHT22;27703;51.980;5.848;2022-12-10T05:31:26;-0.90;99.90
42019;DHT22;27703;51.980;5.848;2022-12-10T05:33:53;-0.90;99.90
42019;DHT22;27703;51.980;5.848;2022-12-10T05:36:21;-0.90;99.90
42019;DHT22;27703;51.980;5.848;2022-12-10T05:38:47;-1.00;99.90
42019;DHT22;27703;51.980;5.848;2022-12-10T05:41:16;-1.00;99.90
42019;DHT22;27703;51.980;5.848;2022-12-10T05:43:43;-1.00;99.90
42019;DHT22;27703;51.980;5.848;2022-12-10T05:46:14;-1.00;99.90
42019;DHT22;27703;51.980;5.848;2022-12-10T05:48:40;-1.00;99.90
42019;DHT22;27703;51.980;5.848;2022-12-10T05:51:11;-1.00;99.90
42019;DHT22;27703;51.980;5.848;2022-12-10T05:53:37;-1.10;99.90
42019;DHT22;27703;51.980;5.848;2022-12-10T05:56:04;-1.10;99.90
42019;DHT22;27703;51.980;5.848;2022-12-10T05:58:31;-1.10;99.90
42019;DHT22;27703;51.980;5.848;2022-12-10T06:00:57;-1.20;99.90
42019;DHT22;27703;51.980;5.848;2022-12-10T06:03:24;-1.20;99.90
42019;DHT22;27703;51.980;5.848;2022-12-10T06:05:49;-1.10;99.90
42019;DHT22;27703;51.980;5.848;2022-12-10T06:08:15;-1.10;99.90
42019;DHT22;27703;51.980;5.848;2022-12-10T06:10:41;-1.10;99.90
42019;DHT22;27703;51.980;5.848;2022-12-10T06:13:06;-1.10;99.90
42019;DHT22;27703;51.980;5.848;2022-12-10T06:15:32;-1.10;99.90
42019;DHT22;27703;51.980;5.848;2022-12-10T06:17:58;-1.10;99.90
42019;DHT22;27703;51.980;5.848;2022-12-10T06:20:25;-1.20;99.90
42019;DHT22;27703;51.980;5.848;2022-12-10T06:22:51;-1.20;99.90
42019;DHT22;27703;51.980;5.848;2022-12-10T06:25:17;-1.30;99.90
42019;DHT22;27703;51.980;5.848;2022-12-10T06:27:42;-1.30;99.90
42019;DHT22;27703;51.980;5.848;2022-12-10T06:30:09;-1.30;99.90
42019;DHT22;27703;51.980;5.848;2022-12-10T06:32:34;-1.30;99.90
42019;DHT22;27703;51.980;5.848;2022-12-10T06:35:00;-1.30;99.90
42019;DHT22;27703;51.980;5.848;2022-12-10T06:37:26;-1.30;99.90
42019;DHT22;27703;51.980;5.848;2022-12-10T06:39:51;-1.30;99.90
42019;DHT22;27703;51.980;5.848;2022-12-10T06:42:18;-1.30;99.90
42019;DHT22;27703;51.980;5.848;2022-12-10T06:44:44;-1.30;99.90
42019;DHT22;27703;51.980;5.848;2022-12-10T06:47:09;-1.30;99.90
42019;DHT22;27703;51.980;5.848;2022-12-10T06:49:35;-1.30;99.90
42019;DHT22;27703;51.980;5.848;2022-12-10T06:52:02;-1.30;99.90
42019;DHT22;27703;51.980;5.848;2022-12-10T06:54:28;-1.40;99.90
42019;DHT22;27703;51.980;5.848;2022-12-10T06:56:53;-1.40;99.90
42019;DHT22;27703;51.980;5.848;2022-12-10T06:59:19;-1.40;99.90
42019;DHT22;27703;51.980;5.848;2022-12-10T07:01:46;-1.40;99.90
42019;DHT22;27703;51.980;5.848;2022-12-10T07:04:11;-1.50;99.90
42019;DHT22;27703;51.980;5.848;2022-12-10T07:06:37;-1.50;99.90
42019;DHT22;27703;51.980;5.848;2022-12-10T07:09:03;-1.50;99.90
42019;DHT22;27703;51.980;5.848;2022-12-10T07:11:28;-1.50;99.90
42019;DHT22;27703;51.980;5.848;2022-12-10T07:13:56;-1.60;99.90
42019;DHT22;27703;51.980;5.848;2022-12-10T07:16:24;-1.60;99.90
42019;DHT22;27703;51.980;5.848;2022-12-10T07:18:51;-1.60;99.90
42019;DHT22;27703;51.980;5.848;2022-12-10T07:21:24;-1.60;99.90
42019;DHT22;27703;51.980;5.848;2022-12-10T07:23:52;-1.60;99.90
42019;DHT22;27703;51.980;5.848;2022-12-10T07:26:19;-1.60;99.90
42019;DHT22;27703;51.980;5.848;2022-12-10T07:28:45;-1.60;99.90
42019;DHT22;27703;51.980;5.848;2022-12-10T07:31:11;-1.60;99.90
42019;DHT22;27703;51.980;5.848;2022-12-10T07:33:36;-1.60;99.90
42019;DHT22;27703;51.980;5.848;2022-12-10T07:36:06;-1.60;99.90
42019;DHT22;27703;51.980;5.848;2022-12-10T07:38:33;-1.60;99.90
42019;DHT22;27703;51.980;5.848;2022-12-10T07:41:05;-1.60;99.90
42019;DHT22;27703;51.980;5.848;2022-12-10T07:43:36;-1.60;99.90
42019;DHT22;27703;51.980;5.848;2022-12-10T07:46:07;-1.60;99.90
42019;DHT22;27703;51.980;5.848;2022-12-10T07:48:34;-1.50;99.90
42019;DHT22;27703;51.980;5.848;2022-12-10T07:50:59;-1.50;99.90
42019;DHT22;27703;51.980;5.848;2022-12-10T07:53:25;-1.40;99.90
42019;DHT22;27703;51.980;5.848;2022-12-10T07:55:51;-1.40;99.90
42019;DHT22;27703;51.980;5.848;2022-12-10T07:58:16;-1.40;99.90
42019;DHT22;27703;51.980;5.848;2022-12-10T08:00:42;-1.40;99.90
42019;DHT22;27703;51.980;5.848;2022-12-10T08:03:07;-1.40;99.90
42019;DHT22;27703;51.980;5.848;2022-12-10T08:05:33;-1.40;99.90
42019;DHT22;27703;51.980;5.848;2022-12-10T08:07:58;-1.30;99.90
42019;DHT22;27703;51.980;5.848;2022-12-10T08:10:24;-1.30;99.90
42019;DHT22;27703;51.980;5.848;2022-12-10T08:12:50;-1.30;99.90
42019;DHT22;27703;51.980;5.848;2022-12-10T08:15:15;-1.30;99.90
42019;DHT22;27703;51.980;5.848;2022-12-10T08:17:41;-1.30;99.90
42019;DHT22;27703;51.980;5.848;2022-12-10T08:20:07;-1.30;99.90
42019;DHT22;27703;51.980;5.848;2022-12-10T08:22:33;-1.30;99.90
42019;DHT22;27703;51.980;5.848;2022-12-10T08:24:59;-1.30;99.90
42019;DHT22;27703;51.980;5.848;2022-12-10T08:27:25;-1.30;99.90
42019;DHT22;27703;51.980;5.848;2022-12-10T08:29:51;-1.20;99.90
42019;DHT22;27703;51.980;5.848;2022-12-10T08:32:16;-1.20;99.90
42019;DHT22;27703;51.980;5.848;2022-12-10T08:34:42;-1.20;99.90
42019;DHT22;27703;51.980;5.848;2022-12-10T08:37:07;-1.20;99.90
42019;DHT22;27703;51.980;5.848;2022-12-10T08:39:33;-1.20;99.90
42019;DHT22;27703;51.980;5.848;2022-12-10T08:41:59;-1.20;99.90
42019;DHT22;27703;51.980;5.848;2022-12-10T08:44:24;-1.20;99.90
42019;DHT22;27703;51.980;5.848;2022-12-10T08:46:50;-1.20;99.90
42019;DHT22;27703;51.980;5.848;2022-12-10T08:49:15;-1.20;99.90
42019;DHT22;27703;51.980;5.848;2022-12-10T08:51:41;-1.20;99.90
42019;DHT22;27703;51.980;5.848;2022-12-10T08:54:07;-1.20;99.90
42019;DHT22;27703;51.980;5.848;2022-12-10T08:56:32;-1.20;99.90
42019;DHT22;27703;51.980;5.848;2022-12-10T08:58:58;-1.20;99.90
42019;DHT22;27703;51.980;5.848;2022-12-10T09:01:24;-1.20;99.90
42019;DHT22;27703;51.980;5.848;2022-12-10T09:03:50;-1.20;99.90
42019;DHT22;27703;51.980;5.848;2022-12-10T09:06:18;-1.10;99.90
42019;DHT22;27703;51.980;5.848;2022-12-10T09:08:45;-1.10;99.90
42019;DHT22;27703;51.980;5.848;2022-12-10T09:11:14;-1.10;99.90
42019;DHT22;27703;51.980;5.848;2022-12-10T09:13:41;-1.00;99.90
42019;DHT22;27703;51.980;5.848;2022-12-10T09:16:07;-1.00;99.90
42019;DHT22;27703;51.980;5.848;2022-12-10T09:18:33;-1.00;99.90
42019;DHT22;27703;51.980;5.848;2022-12-10T09:20:59;-1.00;99.90
42019;DHT22;27703;51.980;5.848;2022-12-10T09:23:24;-1.00;99.90
42019;DHT22;27703;51.980;5.848;2022-12-10T09:25:50;-1.00;99.90
42019;DHT22;27703;51.980;5.848;2022-12-10T09:28:16;-1.00;99.90
42019;DHT22;27703;51.980;5.848;2022-12-10T09:30:41;-1.00;99.90
42019;DHT22;27703;51.980;5.848;2022-12-10T09:33:07;-0.90;99.90
42019;DHT22;27703;51.980;5.848;2022-12-10T09:35:32;-0.90;99.90
42019;DHT22;27703;51.980;5.848;2022-12-10T09:37:58;-0.80;99.90
42019;DHT22;27703;51.980;5.848;2022-12-10T09:40:36;-0.80;99.90
42019;DHT22;27703;51.980;5.848;2022-12-10T09:43:22;-0.80;99.90
42019;DHT22;27703;51.980;5.848;2022-12-10T09:46:08;-0.80;99.90
42019;DHT22;27703;51.980;5.848;2022-12-10T09:51:25;-0.80;99.90
42019;DHT22;27703;51.980;5.848;2022-12-10T09:53:53;-0.80;99.90
42019;DHT22;27703;51.980;5.848;2022-12-10T09:56:31;-0.90;99.90
42019;DHT22;27703;51.980;5.848;2022-12-10T09:59:02;-0.90;99.90
42019;DHT22;27703;51.980;5.848;2022-12-10T10:01:30;-0.90;99.90
42019;DHT22;27703;51.980;5.848;2022-12-10T10:03:57;-0.90;99.90
42019;DHT22;27703;51.980;5.848;2022-12-10T10:06:24;-0.90;99.90
42019;DHT22;27703;51.980;5.848;2022-12-10T10:08:53;-0.90;99.90
42019;DHT22;27703;51.980;5.848;2022-12-10T10:11:27;-0.90;99.90
42019;DHT22;27703;51.980;5.848;2022-12-10T10:13:56;-0.90;99.90
42019;DHT22;27703;51.980;5.848;2022-12-10T10:16:33;-0.90;99.90
42019;DHT22;27703;51.980;5.848;2022-12-10T10:19:13;-0.80;99.90
42019;DHT22;27703;51.980;5.848;2022-12-10T10:21:42;-0.80;99.90
42019;DHT22;27703;51.980;5.848;2022-12-10T10:24:13;-0.80;99.90
42019;DHT22;27703;51.980;5.848;2022-12-10T10:26:40;-0.70;99.90
42019;DHT22;27703;51.980;5.848;2022-12-10T10:29:08;-0.70;99.90
42019;DHT22;27703;51.980;5.848;2022-12-10T10:31:37;-0.60;99.90
42019;DHT22;27703;51.980;5.848;2022-12-10T10:34:05;-0.60;99.90
42019;DHT22;27703;51.980;5.848;2022-12-10T10:36:34;-0.60;99.90
42019;DHT22;27703;51.980;5.848;2022-12-10T10:41:50;-0.50;99.90
42019;DHT22;27703;51.980;5.848;2022-12-10T10:44:19;-0.60;99.90
42019;DHT22;27703;51.980;5.848;2022-12-10T10:46:46;-0.60;99.90
42019;DHT22;27703;51.980;5.848;2022-12-10T10:49:25;-0.60;99.90
42019;DHT22;27703;51.980;5.848;2022-12-10T10:51:52;-0.50;99.90
42019;DHT22;27703;51.980;5.848;2022-12-10T10:54:38;-0.50;99.90
42019;DHT22;27703;51.980;5.848;2022-12-10T10:57:23;-0.50;99.90
42019;DHT22;27703;51.980;5.848;2022-12-10T10:59:52;-0.50;99.90
42019;DHT22;27703;51.980;5.848;2022-12-10T11:02:38;-0.60;99.90
42019;DHT22;27703;51.980;5.848;2022-12-10T11:05:14;-0.50;99.90
42019;DHT22;27703;51.980;5.848;2022-12-10T11:07:41;-0.50;99.90
42019;DHT22;27703;51.980;5.848;2022-12-10T11:10:21;-0.50;99.90
42019;DHT22;27703;51.980;5.848;2022-12-10T11:12:59;-0.40;99.90
42019;DHT22;27703;51.980;5.848;2022-12-10T11:15:34;-0.40;99.90
42019;DHT22;27703;51.980;5.848;2022-12-10T11:18:01;-0.30;99.90
42019;DHT22;27703;51.980;5.848;2022-12-10T11:20:34;-0.40;99.90
42019;DHT22;27703;51.980;5.848;2022-12-10T11:23:10;-0.30;99.90
42019;DHT22;27703;51.980;5.848;2022-12-10T11:26:37;-0.30;99.90
42019;DHT22;27703;51.980;5.848;2022-12-10T11:29:05;-0.30;99.90
42019;DHT22;27703;51.980;5.848;2022-12-10T11:48:37;-0.30;99.90
42019;DHT22;27703;51.980;5.848;2022-12-10T11:51:10;-0.30;99.90
42019;DHT22;27703;51.980;5.848;2022-12-10T11:56:43;-0.30;99.90
42019;DHT22;27703;51.980;5.848;2022-12-10T11:59:30;-0.20;99.90
42019;DHT22;27703;51.980;5.848;2022-12-10T12:02:15;-0.20;99.90
42019;DHT22;27703;51.980;5.848;2022-12-10T12:16:13;-0.20;99.90
42019;DHT22;27703;51.980;5.848;2022-12-10T12:18:51;-0.30;99.90
42019;DHT22;27703;51.980;5.848;2022-12-10T12:21:20;-0.30;99.90
42019;DHT22;27703;51.980;5.848;2022-12-10T12:23:52;-0.30;99.90
42019;DHT22;27703;51.980;5.848;2022-12-10T12:28:52;-0.30;99.90
42019;DHT22;27703;51.980;5.848;2022-12-10T12:31:25;-0.30;99.90
42019;DHT22;27703;51.980;5.848;2022-12-10T12:36:41;-0.30;99.90
42019;DHT22;27703;51.980;5.848;2022-12-10T12:39:14;-0.30;99.90
42019;DHT22;27703;51.980;5.848;2022-12-10T12:41:51;-0.30;99.90
42019;DHT22;27703;51.980;5.848;2022-12-10T12:44:35;-0.30;99.90
42019;DHT22;27703;51.980;5.848;2022-12-10T12:47:26;-0.30;99.90
42019;DHT22;27703;51.980;5.848;2022-12-10T12:49:56;-0.30;99.90
42019;DHT22;27703;51.980;5.848;2022-12-10T12:52:26;-0.30;99.90
42019;DHT22;27703;51.980;5.848;2022-12-10T12:54:57;-0.20;99.90
42019;DHT22;27703;51.980;5.848;2022-12-10T13:00:14;-0.20;99.90
42019;DHT22;27703;51.980;5.848;2022-12-10T13:03:15;-0.20;99.90
42019;DHT22;27703;51.980;5.848;2022-12-10T13:05:42;-0.20;99.90
42019;DHT22;27703;51.980;5.848;2022-12-10T13:13:33;-0.20;99.90
42019;DHT22;27703;51.980;5.848;2022-12-10T13:24:21;-0.10;99.90
42019;DHT22;27703;51.980;5.848;2022-12-10T13:29:55;0.00;99.90
42019;DHT22;27703;51.980;5.848;2022-12-10T13:42:57;-0.10;99.90
42019;DHT22;27703;51.980;5.848;2022-12-10T13:45:41;-0.10;99.90
42019;DHT22;27703;51.980;5.848;2022-12-10T13:48:29;-0.10;99.90
42019;DHT22;27703;51.980;5.848;2022-12-10T14:07:29;-0.30;99.90
42019;DHT22;27703;51.980;5.848;2022-12-10T14:09:57;-0.30;99.90
42019;DHT22;27703;51.980;5.848;2022-12-10T14:15:37;-0.20;99.90
42019;DHT22;27703;51.980;5.848;2022-12-10T14:17:44;-0.20;99.90
42019;DHT22;27703;51.980;5.848;2022-12-10T14:20:17;-0.20;99.90
42019;DHT22;27703;51.980;5.848;2022-12-10T14:22:48;-0.20;99.90
42019;DHT22;27703;51.980;5.848;2022-12-10T14:25:20;-0.20;99.90
42019;DHT22;27703;51.980;5.848;2022-12-10T14:27:51;-0.20;99.90
42019;DHT22;27703;51.980;5.848;2022-12-10T14:30:22;-0.20;99.90
42019;DHT22;27703;51.980;5.848;2022-12-10T14:32:49;-0.20;99.90
42019;DHT22;27703;51.980;5.848;2022-12-10T14:35:20;-0.20;99.90
42019;DHT22;27703;51.980;5.848;2022-12-10T14:37:47;-0.20;99.90
42019;DHT22;27703;51.980;5.848;2022-12-10T14:40:25;-0.20;99.90
42019;DHT22;27703;51.980;5.848;2022-12-10T14:42:59;-0.10;99.90
42019;DHT22;27703;51.980;5.848;2022-12-10T14:45:28;-0.10;99.90
42019;DHT22;27703;51.980;5.848;2022-12-10T14:47:56;-0.20;99.90
42019;DHT22;27703;51.980;5.848;2022-12-10T14:50:28;-0.20;99.90
42019;DHT22;27703;51.980;5.848;2022-12-10T14:52:54;-0.20;99.90
42019;DHT22;27703;51.980;5.848;2022-12-10T14:55:21;-0.20;99.90
42019;DHT22;27703;51.980;5.848;2022-12-10T14:57:54;-0.20;99.90
42019;DHT22;27703;51.980;5.848;2022-12-10T15:00:21;-0.20;99.90
42019;DHT22;27703;51.980;5.848;2022-12-10T15:02:54;-0.20;99.90
42019;DHT22;27703;51.980;5.848;2022-12-10T15:05:26;-0.10;99.90
42019;DHT22;27703;51.980;5.848;2022-12-10T15:07:54;-0.20;99.90
42019;DHT22;27703;51.980;5.848;2022-12-10T15:10:24;-0.20;99.90
42019;DHT22;27703;51.980;5.848;2022-12-10T15:12:51;-0.20;99.90
42019;DHT22;27703;51.980;5.848;2022-12-10T15:15:38;-0.20;99.90
42019;DHT22;27703;51.980;5.848;2022-12-10T15:20:37;-0.20;99.90
42019;DHT22;27703;51.980;5.848;2022-12-10T15:30:49;-0.20;99.90
42019;DHT22;27703;51.980;5.848;2022-12-10T15:33:31;-0.20;99.90
42019;DHT22;27703;51.980;5.848;2022-12-10T15:35:59;-0.10;99.90
42019;DHT22;27703;51.980;5.848;2022-12-10T15:38:25;-0.20;99.90
42019;DHT22;27703;51.980;5.848;2022-12-10T15:41:00;-0.20;99.90
42019;DHT22;27703;51.980;5.848;2022-12-10T15:43:54;-0.10;99.90
42019;DHT22;27703;51.980;5.848;2022-12-10T15:46:22;-0.20;99.90
42019;DHT22;27703;51.980;5.848;2022-12-10T15:48:47;-0.20;99.90
42019;DHT22;27703;51.980;5.848;2022-12-10T15:51:13;-0.10;99.90
42019;DHT22;27703;51.980;5.848;2022-12-10T15:53:39;-0.20;99.90
42019;DHT22;27703;51.980;5.848;2022-12-10T15:56:05;-0.10;99.90
42019;DHT22;27703;51.980;5.848;2022-12-10T15:58:31;-0.10;99.90
42019;DHT22;27703;51.980;5.848;2022-12-10T16:00:56;-0.10;99.90
42019;DHT22;27703;51.980;5.848;2022-12-10T16:03:24;-0.10;99.90
42019;DHT22;27703;51.980;5.848;2022-12-10T16:05:52;-0.10;99.90
42019;DHT22;27703;51.980;5.848;2022-12-10T16:08:26;-0.10;99.90
42019;DHT22;27703;51.980;5.848;2022-12-10T16:10:55;0.00;99.90
42019;DHT22;27703;51.980;5.848;2022-12-10T16:13:24;0.00;99.90
42019;DHT22;27703;51.980;5.848;2022-12-10T16:15:54;0.00;99.90
42019;DHT22;27703;51.980;5.848;2022-12-10T16:18:21;0.00;99.90
42019;DHT22;27703;51.980;5.848;2022-12-10T16:20:47;0.10;99.90
42019;DHT22;27703;51.980;5.848;2022-12-10T16:23:13;0.10;99.90
42019;DHT22;27703;51.980;5.848;2022-12-10T16:25:40;0.10;99.90
42019;DHT22;27703;51.980;5.848;2022-12-10T16:28:11;0.00;99.90
42019;DHT22;27703;51.980;5.848;2022-12-10T16:30:50;0.00;99.90
42019;DHT22;27703;51.980;5.848;2022-12-10T16:33:17;0.00;99.90
42019;DHT22;27703;51.980;5.848;2022-12-10T16:35:43;0.00;99.90
42019;DHT22;27703;51.980;5.848;2022-12-10T16:38:09;0.00;99.90
42019;DHT22;27703;51.980;5.848;2022-12-10T16:40:36;0.00;99.90
42019;DHT22;27703;51.980;5.848;2022-12-10T16:43:02;0.10;99.90
42019;DHT22;27703;51.980;5.848;2022-12-10T16:45:34;0.00;99.90
42019;DHT22;27703;51.980;5.848;2022-12-10T16:48:01;0.10;99.90
42019;DHT22;27703;51.980;5.848;2022-12-10T16:50:27;0.10;99.90
42019;DHT22;27703;51.980;5.848;2022-12-10T16:52:54;0.10;99.90
42019;DHT22;27703;51.980;5.848;2022-12-10T16:55:22;0.10;99.90
42019;DHT22;27703;51.980;5.848;2022-12-10T16:57:48;0.10;99.90
42019;DHT22;27703;51.980;5.848;2022-12-10T17:00:20;0.10;99.90
42019;DHT22;27703;51.980;5.848;2022-12-10T17:02:46;0.10;99.90
42019;DHT22;27703;51.980;5.848;2022-12-10T17:05:16;0.10;99.90
42019;DHT22;27703;51.980;5.848;2022-12-10T17:07:43;0.20;99.90
42019;DHT22;27703;51.980;5.848;2022-12-10T17:10:11;0.20;99.90
42019;DHT22;27703;51.980;5.848;2022-12-10T17:12:37;0.20;99.90
42019;DHT22;27703;51.980;5.848;2022-12-10T17:15:03;0.30;99.90
42019;DHT22;27703;51.980;5.848;2022-12-10T17:17:29;0.30;99.90
42019;DHT22;27703;51.980;5.848;2022-12-10T17:19:54;0.20;99.90
42019;DHT22;27703;51.980;5.848;2022-12-10T17:22:20;0.20;99.90
42019;DHT22;27703;51.980;5.848;2022-12-10T17:24:46;0.30;99.90
42019;DHT22;27703;51.980;5.848;2022-12-10T17:27:16;0.30;99.90
42019;DHT22;27703;51.980;5.848;2022-12-10T17:29:43;0.30;99.90
42019;DHT22;27703;51.980;5.848;2022-12-10T17:32:19;0.30;99.90
42019;DHT22;27703;51.980;5.848;2022-12-10T17:34:45;0.30;99.90
42019;DHT22;27703;51.980;5.848;2022-12-10T17:37:16;0.30;99.90
42019;DHT22;27703;51.980;5.848;2022-12-10T17:39:43;0.30;99.90
42019;DHT22;27703;51.980;5.848;2022-12-10T17:42:09;0.30;99.90
42019;DHT22;27703;51.980;5.848;2022-12-10T17:44:35;0.20;99.90